createdAt,value
2023-11-09T00:01:15.895Z,99.90
2023-11-09T00:03:43.962Z,99.90
2023-11-09T00:06:12.957Z,99.90
2023-11-09T00:08:43.678Z,99.90
2023-11-09T00:11:12.193Z,99.90
2023-11-09T00:13:40.271Z,99.90
2023-11-09T00:16:08.737Z,99.90
2023-11-09T00:18:38.794Z,99.90
2023-11-09T00:21:07.308Z,99.90
2023-11-09T00:23:35.476Z,99.90
2023-11-09T00:26:04.919Z,99.90
2023-11-09T00:28:33.003Z,99.90
2023-11-09T00:31:01.082Z,99.90
2023-11-09T00:33:29.192Z,99.90
2023-11-09T00:35:59.560Z,99.90
2023-11-09T00:38:27.603Z,99.90
2023-11-09T00:40:55.657Z,99.90
2023-11-09T00:43:23.779Z,99.90
2023-11-09T00:45:51.906Z,99.90
2023-11-09T00:48:20.429Z,99.90
2023-11-09T00:50:48.477Z,99.90
2023-11-09T00:53:17.845Z,99.90
2023-11-09T00:55:45.884Z,99.90
2023-11-09T00:58:14.083Z,99.90
2023-11-09T01:00:42.171Z,99.90
2023-11-09T01:03:10.651Z,99.90
2023-11-09T01:05:38.789Z,99.90
2023-11-09T01:08:07.735Z,99.90
2023-11-09T01:10:37.253Z,99.90
2023-11-09T01:13:05.815Z,99.90
2023-11-09T01:15:33.887Z,99.90
2023-11-09T01:18:04.472Z,99.90
2023-11-09T01:20:33.910Z,99.90
2023-11-09T01:23:02.113Z,99.90
2023-11-09T01:25:30.703Z,99.90
2023-11-09T01:28:00.726Z,99.90
2023-11-09T01:30:30.198Z,99.90
2023-11-09T01:32:58.410Z,99.90
2023-11-09T01:35:26.523Z,99.90
2023-11-09T01:37:54.563Z,99.90
2023-11-09T01:40:25.081Z,99.90
2023-11-09T01:42:55.239Z,99.90
2023-11-09T01:45:24.692Z,99.90
2023-11-09T01:47:55.210Z,99.90
2023-11-09T01:50:26.856Z,99.90
2023-11-09T01:52:55.697Z,99.90
2023-11-09T01:55:24.546Z,99.90
2023-11-09T01:57:52.849Z,99.90
2023-11-09T02:00:22.196Z,99.90
2023-11-09T02:02:53.974Z,99.90
2023-11-09T02:05:24.019Z,99.90
2023-11-09T02:07:54.601Z,99.90
2023-11-09T02:10:23.690Z,99.90
2023-11-09T02:12:52.131Z,99.90
2023-11-09T02:15:20.449Z,99.90
2023-11-09T02:17:48.678Z,99.90
2023-11-09T02:20:18.602Z,99.90
2023-11-09T02:22:50.295Z,99.90
2023-11-09T02:25:21.244Z,99.90
2023-11-09T02:27:49.319Z,99.90
2023-11-09T02:30:17.388Z,99.90
2023-11-09T02:32:45.480Z,99.90
2023-11-09T02:35:14.169Z,99.90
2023-11-09T02:37:42.261Z,99.90
2023-11-09T02:40:11.791Z,99.90
2023-11-09T02:42:41.203Z,99.90
2023-11-09T02:45:10.828Z,99.90
2023-11-09T02:47:38.872Z,99.90
2023-11-09T02:50:08.181Z,99.90
2023-11-09T02:52:36.373Z,99.90
2023-11-09T02:55:04.660Z,99.90
2023-11-09T02:57:32.712Z,99.90
2023-11-09T03:00:05.764Z,99.90
2023-11-09T03:02:35.228Z,99.90
2023-11-09T03:05:03.337Z,99.90
2023-11-09T03:07:32.540Z,99.90
2023-11-09T03:10:01.105Z,99.90
2023-11-09T03:12:29.182Z,99.90
2023-11-09T03:14:57.245Z,99.90
2023-11-09T03:17:26.684Z,99.90
2023-11-09T03:19:54.730Z,99.90
2023-11-09T03:22:22.835Z,99.90
2023-11-09T03:24:50.893Z,99.90
2023-11-09T03:27:18.946Z,99.90
2023-11-09T03:29:46.978Z,99.90
2023-11-09T03:32:15.025Z,99.90
2023-11-09T03:34:45.020Z,99.90
2023-11-09T03:37:13.073Z,99.90
2023-11-09T03:39:41.156Z,99.90
2023-11-09T03:42:09.842Z,99.90
2023-11-09T03:44:41.296Z,99.90
2023-11-09T03:47:09.544Z,99.90
2023-11-09T03:49:41.852Z,99.90
2023-11-09T03:52:12.139Z,99.90
2023-11-09T03:54:40.265Z,99.90
2023-11-09T03:57:08.824Z,99.90
2023-11-09T03:59:37.067Z,99.90
2023-11-09T04:02:05.568Z,99.90
2023-11-09T04:04:33.657Z,99.90
2023-11-09T04:07:01.722Z,99.90
2023-11-09T04:09:31.183Z,99.90
2023-11-09T04:11:59.251Z,99.90
2023-11-09T04:14:27.275Z,99.90
2023-11-09T04:16:55.309Z,99.90
2023-11-09T04:19:23.475Z,99.90
2023-11-09T04:21:51.650Z,99.90
2023-11-09T04:24:19.712Z,99.90
2023-11-09T04:26:49.117Z,99.90
2023-11-09T04:29:17.999Z,99.90
2023-11-09T04:31:48.610Z,99.90
2023-11-09T04:34:16.789Z,99.90
2023-11-09T04:36:50.746Z,99.90
2023-11-09T04:39:29.022Z,99.90
2023-11-09T04:41:59.986Z,99.90
2023-11-09T04:44:29.576Z,99.90
2023-11-09T04:46:59.157Z,99.90
2023-11-09T04:49:28.267Z,99.90
2023-11-09T04:52:03.782Z,99.90
2023-11-09T04:54:40.484Z,99.90
2023-11-09T04:57:23.761Z,99.90
2023-11-09T05:00:09.489Z,99.90
2023-11-09T05:02:55.045Z,99.90
2023-11-09T05:05:40.613Z,99.90
2023-11-09T05:08:08.668Z,99.90
2023-11-09T05:10:36.863Z,99.90
2023-11-09T05:13:06.249Z,99.90
2023-11-09T05:15:34.312Z,99.90
2023-11-09T05:18:03.669Z,99.90
2023-11-09T05:20:31.940Z,99.90
2023-11-09T05:23:00.180Z,99.90
2023-11-09T05:25:29.873Z,99.90
2023-11-09T05:27:58.019Z,99.90
2023-11-09T05:30:27.440Z,99.90
2023-11-09T05:32:55.515Z,99.90
2023-11-09T05:35:23.540Z,99.90
2023-11-09T05:37:52.570Z,99.90
2023-11-09T05:40:21.956Z,99.90
2023-11-09T05:42:50.116Z,99.90
2023-11-09T05:45:18.186Z,99.90
2023-11-09T05:47:47.577Z,99.90
2023-11-09T05:50:15.825Z,99.90
2023-11-09T05:52:44.008Z,99.90
2023-11-09T05:55:12.234Z,99.90
2023-11-09T05:57:40.311Z,99.90
2023-11-09T06:00:11.893Z,99.90
2023-11-09T06:02:40.023Z,99.90
2023-11-09T06:05:09.840Z,99.90
2023-11-09T06:07:40.992Z,99.90
2023-11-09T06:10:10.671Z,99.90
2023-11-09T06:12:39.022Z,99.90
2023-11-09T06:15:08.823Z,99.90
2023-11-09T06:17:37.729Z,99.90
2023-11-09T06:20:11.656Z,99.90
2023-11-09T06:22:41.700Z,99.90
2023-11-09T06:25:10.970Z,99.90
2023-11-09T06:27:39.088Z,99.90
2023-11-09T06:30:09.876Z,99.90
2023-11-09T06:32:38.050Z,99.90
2023-11-09T06:35:14.470Z,99.90
2023-11-09T06:37:46.382Z,99.90
2023-11-09T06:40:17.620Z,99.90
2023-11-09T06:42:50.972Z,99.90
2023-11-09T06:45:19.627Z,99.90
2023-11-09T06:47:47.716Z,99.90
2023-11-09T06:50:20.140Z,99.90
2023-11-09T06:52:52.011Z,99.90
2023-11-09T06:55:21.251Z,99.90
2023-11-09T06:57:51.099Z,99.90
2023-11-09T07:00:22.849Z,99.90
2023-11-09T07:02:51.239Z,99.90
2023-11-09T07:05:20.985Z,99.90
2023-11-09T07:07:51.834Z,99.90
2023-11-09T07:10:19.986Z,99.90
2023-11-09T07:12:48.095Z,99.90
2023-11-09T07:15:17.436Z,99.90
2023-11-09T07:17:45.471Z,99.90
2023-11-09T07:20:14.395Z,99.90
2023-11-09T07:22:42.536Z,99.90
2023-11-09T07:25:14.159Z,99.90
2023-11-09T07:27:42.665Z,99.90
2023-11-09T07:30:11.849Z,99.90
2023-11-09T07:32:39.953Z,99.90
2023-11-09T07:35:10.257Z,99.90
2023-11-09T07:37:38.447Z,99.90
2023-11-09T07:40:10.862Z,99.90
2023-11-09T07:42:40.718Z,99.90
2023-11-09T07:45:11.286Z,99.90
2023-11-09T07:47:39.440Z,99.90
2023-11-09T07:50:10.980Z,99.90
2023-11-09T07:52:39.746Z,99.90
2023-11-09T07:55:08.676Z,99.90
2023-11-09T07:57:36.895Z,99.90
2023-11-09T08:00:12.031Z,99.90
2023-11-09T08:02:40.666Z,99.90
2023-11-09T08:05:12.670Z,99.90
2023-11-09T08:07:41.408Z,99.90
2023-11-09T08:10:10.932Z,99.90
2023-11-09T08:12:40.934Z,99.90
2023-11-09T08:15:12.284Z,99.90
2023-11-09T08:17:43.130Z,99.90
2023-11-09T08:20:16.506Z,99.90
2023-11-09T08:22:47.389Z,99.90
2023-11-09T08:25:18.794Z,99.90
2023-11-09T08:27:47.582Z,99.90
2023-11-09T08:30:17.653Z,99.90
2023-11-09T08:32:48.857Z,99.90
2023-11-09T08:35:18.974Z,99.90
2023-11-09T08:37:47.155Z,99.90
2023-11-09T08:40:18.792Z,99.90
2023-11-09T08:42:49.008Z,99.90
2023-11-09T08:45:19.581Z,99.90
2023-11-09T08:47:49.952Z,99.90
2023-11-09T08:50:18.712Z,99.90
2023-11-09T08:52:47.688Z,99.90
2023-11-09T08:55:17.637Z,97.40
2023-11-09T08:57:46.264Z,96.30
2023-11-09T09:00:15.104Z,95.90
2023-11-09T09:02:50.149Z,96.10
2023-11-09T09:05:20.499Z,96.40
2023-11-09T09:07:53.152Z,96.50
2023-11-09T09:10:27.995Z,95.70
2023-11-09T09:12:58.335Z,93.60
2023-11-09T09:15:29.217Z,89.80
2023-11-09T09:17:59.633Z,88.20
2023-11-09T09:20:28.899Z,90.00
2023-11-09T09:23:00.797Z,91.70
2023-11-09T09:25:30.802Z,93.50
2023-11-09T09:27:59.123Z,95.70
2023-11-09T09:30:27.983Z,97.30
2023-11-09T09:33:00.197Z,99.30
2023-11-09T09:35:35.666Z,99.90
2023-11-09T09:38:12.593Z,99.90
2023-11-09T09:40:47.880Z,99.90
2023-11-09T09:43:20.737Z,99.90
2023-11-09T09:45:58.612Z,99.90
2023-11-09T09:48:33.896Z,99.90
2023-11-09T09:51:07.188Z,99.90
2023-11-09T09:53:37.548Z,99.90
2023-11-09T09:56:08.526Z,99.90
2023-11-09T09:58:38.749Z,99.90
2023-11-09T10:01:06.806Z,99.90
2023-11-09T10:03:38.117Z,99.90
2023-11-09T10:06:07.416Z,99.90
2023-11-09T10:08:37.540Z,99.90
2023-11-09T10:11:06.480Z,99.90
2023-11-09T10:13:36.335Z,99.90
2023-11-09T10:16:04.838Z,99.90
2023-11-09T10:18:35.267Z,99.90
2023-11-09T10:21:05.472Z,99.90
2023-11-09T10:23:33.662Z,99.90
2023-11-09T10:26:03.849Z,99.90
2023-11-09T10:28:34.119Z,99.90
2023-11-09T10:31:03.131Z,99.90
2023-11-09T10:33:33.928Z,99.90
2023-11-09T10:36:06.941Z,99.90
2023-11-09T10:38:37.129Z,99.90
2023-11-09T10:41:51.160Z,99.90
2023-11-09T10:44:02.325Z,99.90
2023-11-09T10:46:33.076Z,99.90
2023-11-09T10:49:01.286Z,99.90
2023-11-09T10:51:34.236Z,99.90
2023-11-09T10:54:04.537Z,99.90
2023-11-09T10:56:33.817Z,99.90
2023-11-09T10:59:01.977Z,99.90
2023-11-09T11:01:32.208Z,99.90
2023-11-09T11:04:01.294Z,99.90
2023-11-09T11:06:38.689Z,99.90
2023-11-09T11:09:19.508Z,99.90
2023-11-09T11:11:50.562Z,99.90
2023-11-09T11:14:24.246Z,99.90
2023-11-09T11:17:17.698Z,99.90
2023-11-09T11:20:24.889Z,99.90
2023-11-09T11:23:31.141Z,99.90
2023-11-09T11:26:08.273Z,99.90
2023-11-09T11:28:39.983Z,99.90
2023-11-09T11:31:09.351Z,99.90
2023-11-09T11:33:37.866Z,99.90
2023-11-09T11:36:08.770Z,99.90
2023-11-09T11:38:41.058Z,99.90
2023-11-09T11:41:19.623Z,99.90
2023-11-09T11:43:52.128Z,99.90
2023-11-09T11:46:25.781Z,99.90
2023-11-09T11:48:55.235Z,99.90
2023-11-09T11:51:25.572Z,99.90
2023-11-09T11:54:09.429Z,99.90
2023-11-09T11:56:41.391Z,99.90
2023-11-09T11:59:11.372Z,99.90
2023-11-09T12:01:43.101Z,99.90
2023-11-09T12:04:15.666Z,99.90
2023-11-09T12:06:50.855Z,99.90
2023-11-09T12:09:20.296Z,99.90
2023-11-09T12:11:51.538Z,99.90
2023-11-09T12:14:21.110Z,99.90
2023-11-09T12:16:50.724Z,99.90
2023-11-09T12:19:19.321Z,99.90
2023-11-09T12:21:48.669Z,99.90
2023-11-09T12:24:24.860Z,99.90
2023-11-09T12:27:07.086Z,99.90
2023-11-09T12:29:38.968Z,99.90
2023-11-09T12:32:08.621Z,99.90
2023-11-09T12:34:40.913Z,99.90
2023-11-09T12:37:15.513Z,99.90
2023-11-09T12:39:46.049Z,99.90
2023-11-09T12:42:20.381Z,99.90
2023-11-09T12:44:48.693Z,99.90
2023-11-09T12:47:21.744Z,99.90
2023-11-09T12:49:54.137Z,99.90
2023-11-09T12:52:27.434Z,99.90
2023-11-09T12:54:57.877Z,99.90
2023-11-09T12:57:30.446Z,99.90
2023-11-09T12:59:58.525Z,99.90
2023-11-09T13:02:35.342Z,99.90
2023-11-09T13:05:04.162Z,99.90
2023-11-09T13:07:32.286Z,99.90
2023-11-09T13:10:15.645Z,99.90
2023-11-09T13:12:46.466Z,99.90
2023-11-09T13:15:31.882Z,99.90
2023-11-09T13:18:01.673Z,99.90
2023-11-09T13:20:33.135Z,99.90
2023-11-09T13:23:10.811Z,99.90
2023-11-09T13:25:43.745Z,99.90
2023-11-09T13:28:15.905Z,99.90
2023-11-09T13:30:58.480Z,99.90
2023-11-09T13:33:37.953Z,99.90
2023-11-09T13:36:11.078Z,99.90
2023-11-09T13:38:46.803Z,99.90
2023-11-09T13:41:19.952Z,99.90
2023-11-09T13:44:07.134Z,99.90
2023-11-09T13:46:41.887Z,99.90
2023-11-09T13:49:20.749Z,99.90
2023-11-09T13:52:07.994Z,99.90
2023-11-09T13:54:47.937Z,99.90
2023-11-09T13:57:22.049Z,99.90
2023-11-09T13:59:56.978Z,99.90
2023-11-09T14:02:30.353Z,99.90
2023-11-09T14:05:08.761Z,99.90
2023-11-09T14:07:41.152Z,99.90
2023-11-09T14:10:14.233Z,99.90
2023-11-09T14:12:51.624Z,99.90
2023-11-09T14:15:28.544Z,99.90
2023-11-09T14:18:20.551Z,99.90
2023-11-09T14:20:53.581Z,99.90
2023-11-09T14:23:24.643Z,99.90
2023-11-09T14:25:53.070Z,99.90
2023-11-09T14:28:25.670Z,99.90
2023-11-09T14:30:53.762Z,99.90
2023-11-09T14:33:25.022Z,99.90
2023-11-09T14:35:53.479Z,99.90
2023-11-09T14:38:23.312Z,99.90
2023-11-09T14:40:52.236Z,99.90
2023-11-09T14:43:21.917Z,99.90
2023-11-09T14:45:50.879Z,99.90
2023-11-09T14:48:23.656Z,99.90
2023-11-09T14:50:52.150Z,99.90
2023-11-09T14:53:30.182Z,99.90
2023-11-09T14:56:02.488Z,99.90
2023-11-09T14:58:34.494Z,99.90
2023-11-09T15:01:04.091Z,99.90
2023-11-09T15:03:35.069Z,99.90
2023-11-09T15:06:11.231Z,99.90
2023-11-09T15:08:40.658Z,99.90
2023-11-09T15:11:11.876Z,99.90
2023-11-09T15:13:42.437Z,99.90
2023-11-09T15:16:10.518Z,99.90
2023-11-09T15:18:38.692Z,99.90
2023-11-09T15:21:10.946Z,99.90
2023-11-09T15:23:39.160Z,99.90
2023-11-09T15:26:07.985Z,99.90
2023-11-09T15:28:36.159Z,99.90
2023-11-09T15:31:06.832Z,99.90
2023-11-09T15:33:36.041Z,99.90
2023-11-09T15:36:04.918Z,99.90
2023-11-09T15:38:33.148Z,99.90
2023-11-09T15:41:18.190Z,99.90
2023-11-09T15:43:51.476Z,99.90
2023-11-09T15:46:21.061Z,99.90
2023-11-09T15:48:49.365Z,99.90
2023-11-09T15:51:18.519Z,99.90
2023-11-09T15:53:46.726Z,99.90
2023-11-09T15:56:16.601Z,99.90
2023-11-09T15:58:49.561Z,99.90
2023-11-09T16:01:20.416Z,99.90
2023-11-09T16:03:52.164Z,99.90
2023-11-09T16:06:20.303Z,99.90
2023-11-09T16:08:50.755Z,99.90
2023-11-09T16:11:19.402Z,99.90
2023-11-09T16:13:47.519Z,99.90
2023-11-09T16:16:16.756Z,99.90
2023-11-09T16:18:44.840Z,99.90
2023-11-09T16:21:14.208Z,99.90
2023-11-09T16:23:42.302Z,99.90
2023-11-09T16:26:10.527Z,99.90
2023-11-09T16:28:46.701Z,99.90
2023-11-09T16:31:14.815Z,99.90
2023-11-09T16:33:43.950Z,99.90
2023-11-09T16:36:14.934Z,99.90
2023-11-09T16:38:43.516Z,99.90
2023-11-09T16:41:11.593Z,99.90
2023-11-09T16:43:39.766Z,99.90
2023-11-09T16:46:08.583Z,99.90
2023-11-09T16:48:39.792Z,99.90
2023-11-09T16:51:08.363Z,99.90
2023-11-09T16:53:37.772Z,99.90
2023-11-09T16:56:09.605Z,99.90
2023-11-09T16:58:37.793Z,99.90
2023-11-09T17:01:08.306Z,99.90
2023-11-09T17:03:36.519Z,99.90
2023-11-09T17:06:06.965Z,99.90
2023-11-09T17:08:36.149Z,99.90
2023-11-09T17:11:05.860Z,99.90
2023-11-09T17:13:34.627Z,99.90
2023-11-09T17:16:02.870Z,99.90
2023-11-09T17:18:31.897Z,99.90
2023-11-09T17:20:59.982Z,99.90
2023-11-09T17:23:28.044Z,99.90
2023-11-09T17:25:56.155Z,99.90
2023-11-09T17:28:25.549Z,99.90
2023-11-09T17:30:53.638Z,99.90
2023-11-09T17:33:21.734Z,99.90
2023-11-09T17:35:49.877Z,99.90
2023-11-09T17:38:19.636Z,99.90
2023-11-09T17:40:48.082Z,99.90
2023-11-09T17:43:16.201Z,99.90
2023-11-09T17:45:45.660Z,99.90
2023-11-09T17:48:13.964Z,99.90
2023-11-09T17:50:42.352Z,99.90
2023-11-09T17:53:10.417Z,99.90
2023-11-09T17:55:38.474Z,99.90
2023-11-09T17:58:08.862Z,99.90
2023-11-09T18:00:36.974Z,99.90
2023-11-09T18:03:06.534Z,99.90
2023-11-09T18:05:34.727Z,99.90
2023-11-09T18:08:03.292Z,99.90
2023-11-09T18:10:32.768Z,99.90
2023-11-09T18:13:01.189Z,99.90
2023-11-09T18:15:30.257Z,99.90
2023-11-09T18:18:02.672Z,99.90
2023-11-09T18:20:35.065Z,99.90
2023-11-09T18:23:04.029Z,99.90
2023-11-09T18:25:32.774Z,99.90
2023-11-09T18:28:01.055Z,99.90
2023-11-09T18:30:29.183Z,99.90
2023-11-09T18:32:57.492Z,99.90
2023-11-09T18:35:27.198Z,99.90
2023-11-09T18:37:56.617Z,99.90
2023-11-09T18:40:24.985Z,99.90
2023-11-09T18:42:53.196Z,99.90
2023-11-09T18:45:21.253Z,99.90
2023-11-09T18:47:49.336Z,99.90
2023-11-09T18:52:50.038Z,99.90
2023-11-09T18:55:19.498Z,99.90
2023-11-09T18:57:47.549Z,99.90
2023-11-09T19:00:16.107Z,99.90
2023-11-09T19:05:15.357Z,99.90
2023-11-09T19:07:43.555Z,99.90
2023-11-09T19:10:12.226Z,99.90
2023-11-09T19:12:42.581Z,99.90
2023-11-09T19:15:11.663Z,99.90
2023-11-09T19:17:40.826Z,99.90
2023-11-09T19:20:12.058Z,99.90
2023-11-09T19:22:41.501Z,99.90
2023-11-09T19:25:10.948Z,99.90
2023-11-09T19:27:39.201Z,99.90
2023-11-09T19:30:11.883Z,99.90
2023-11-09T19:32:40.095Z,99.90
2023-11-09T19:35:10.240Z,99.90
2023-11-09T19:37:38.310Z,99.90
2023-11-09T19:40:10.153Z,99.90
2023-11-09T19:42:39.757Z,99.90
2023-11-09T19:45:10.848Z,99.90
2023-11-09T19:47:39.087Z,99.90
2023-11-09T19:50:10.540Z,99.90
2023-11-09T19:52:38.706Z,99.90
2023-11-09T19:55:08.730Z,99.90
2023-11-09T19:57:37.655Z,99.90
2023-11-09T20:00:10.115Z,99.90
2023-11-09T20:02:39.741Z,99.90
2023-11-09T20:05:08.426Z,99.90
2023-11-09T20:07:36.490Z,99.90
2023-11-09T20:10:05.231Z,99.90
2023-11-09T20:12:36.399Z,99.90
2023-11-09T20:15:05.495Z,99.90
2023-11-09T20:17:33.661Z,99.90
2023-11-09T20:20:03.350Z,99.90
2023-11-09T20:22:32.920Z,99.90
2023-11-09T20:25:00.961Z,99.90
2023-11-09T20:27:29.478Z,99.90
2023-11-09T20:29:58.002Z,99.90
2023-11-09T20:32:26.746Z,99.90
2023-11-09T20:34:59.160Z,99.90
2023-11-09T20:37:28.572Z,99.90
2023-11-09T20:39:58.514Z,99.90
2023-11-09T20:42:26.777Z,99.90
2023-11-09T20:44:54.806Z,99.90
2023-11-09T20:47:24.078Z,99.90
2023-11-09T20:49:53.334Z,99.90
2023-11-09T20:52:21.687Z,99.90
2023-11-09T20:54:51.199Z,99.90
2023-11-09T20:57:19.318Z,99.90
2023-11-09T20:59:47.383Z,99.90
2023-11-09T21:02:15.423Z,99.90
2023-11-09T21:04:43.620Z,99.90
2023-11-09T21:07:11.894Z,99.90
2023-11-09T21:09:42.719Z,99.90
2023-11-09T21:12:13.770Z,99.90
2023-11-09T21:14:47.652Z,99.90
2023-11-09T21:17:16.188Z,99.90
2023-11-09T21:19:44.217Z,99.90
2023-11-09T21:22:14.206Z,99.90
2023-11-09T21:24:42.573Z,99.90
2023-11-09T21:27:13.736Z,99.90
2023-11-09T21:29:41.975Z,99.90
2023-11-09T21:32:11.309Z,99.90
2023-11-09T21:34:40.096Z,99.90
2023-11-09T21:37:08.681Z,99.90
2023-11-09T21:39:38.382Z,99.90
2023-11-09T21:42:09.849Z,99.90
2023-11-09T21:44:39.637Z,99.90
2023-11-09T21:47:08.872Z,99.90
2023-11-09T21:49:39.048Z,99.90
2023-11-09T21:52:08.482Z,99.90
2023-11-09T21:54:37.056Z,99.90
2023-11-09T21:57:05.855Z,99.90
2023-11-09T21:59:36.113Z,99.90
2023-11-09T22:02:05.718Z,99.90
2023-11-09T22:04:34.723Z,99.90
2023-11-09T22:07:02.877Z,99.90
2023-11-09T22:09:31.051Z,99.90
2023-11-09T22:11:59.418Z,99.90
2023-11-09T22:14:28.455Z,99.90
2023-11-09T22:16:58.265Z,99.90
2023-11-09T22:19:27.967Z,99.90
2023-11-09T22:21:56.110Z,99.90
2023-11-09T22:24:24.329Z,99.90
2023-11-09T22:26:53.209Z,99.90
2023-11-09T22:29:21.252Z,99.90
2023-11-09T22:31:49.304Z,99.90
2023-11-09T22:34:18.179Z,99.90
2023-11-09T22:36:47.632Z,99.90
2023-11-09T22:39:15.693Z,99.90
2023-11-09T22:41:43.840Z,99.90
2023-11-09T22:44:11.885Z,99.90
2023-11-09T22:46:42.353Z,99.90
2023-11-09T22:49:11.427Z,99.90
2023-11-09T22:51:39.536Z,99.90
2023-11-09T22:54:09.039Z,99.90
2023-11-09T22:56:37.162Z,99.90
2023-11-09T22:59:05.350Z,99.90
2023-11-09T23:01:33.418Z,99.90
2023-11-09T23:04:01.567Z,99.90
2023-11-09T23:06:30.327Z,99.90
2023-11-09T23:08:59.808Z,99.90
2023-11-09T23:11:29.504Z,99.90
2023-11-09T23:13:58.683Z,99.90
2023-11-09T23:16:27.794Z,99.90
2023-11-09T23:18:57.034Z,99.90
2023-11-09T23:21:25.250Z,99.90
2023-11-09T23:23:53.711Z,99.90
2023-11-09T23:26:21.908Z,99.90
2023-11-09T23:28:51.285Z,99.90
2023-11-09T23:31:19.413Z,99.90
2023-11-09T23:33:47.615Z,99.90
2023-11-09T23:36:16.080Z,99.90
2023-11-09T23:38:45.702Z,99.90
2023-11-09T23:41:14.293Z,99.90
2023-11-09T23:43:42.396Z,99.90
2023-11-09T23:46:11.896Z,99.90
2023-11-09T23:48:40.007Z,99.90
2023-11-09T23:51:08.489Z,99.90
2023-11-09T23:53:38.566Z,99.90
2023-11-09T23:56:08.929Z,99.90
2023-11-09T23:58:37.024Z,99.90
